Time;durP1;ratioP1;P1;durP2;ratioP2;P2;SDS_P1;SDS_P2;PMS_P1;PMS_P2;Temp;Humidity;BMP_temperature;BMP_pressure;BME280_temperature;BME280_humidity;BME280_pressure;Samples;Min_cycle;Max_cycle;Signal;HPM_P1;HPM_P2
2023/11/16 00:01:49;;;;;;;2.28;1.60;;;;;;;;;;5123592;27;20034;-74
2023/11/16 00:04:35;;;;;;;3.78;1.75;;;;;;;;;;5136407;27;20026;-73
2023/11/16 00:07:20;;;;;;;2.00;1.70;;;;;;;;;;5136906;27;20016;-72
2023/11/16 00:10:07;;;;;;;4.13;1.60;;;;;;;;;;5136542;27;20015;-73
2023/11/16 00:12:55;;;;;;;1.98;1.67;;;;;;;;;;5136376;27;20088;-73
2023/11/16 00:15:40;;;;;;;1.90;1.60;;;;;;;;;;5135938;27;20016;-72
2023/11/16 00:18:27;;;;;;;1.73;1.48;;;;;;;;;;5136839;27;20007;-73
2023/11/16 00:21:13;;;;;;;2.17;1.55;;;;;;;;;;5136058;27;20023;-73
2023/11/16 00:23:58;;;;;;;2.30;1.58;;;;;;;;;;5122184;27;20059;-73
2023/11/16 00:26:44;;;;;;;2.08;1.40;;;;;;;;;;5121249;27;20022;-73
2023/11/16 00:29:30;;;;;;;2.00;1.50;;;;;;;;;;5136171;27;20023;-72
2023/11/16 00:32:15;;;;;;;2.22;1.70;;;;;;;;;;5136706;27;20057;-73
2023/11/16 00:35:01;;;;;;;2.40;1.80;;;;;;;;;;5136342;27;20015;-73
2023/11/16 00:37:47;;;;;;;2.55;1.90;;;;;;;;;;5136051;27;20012;-74
2023/11/16 00:40:32;;;;;;;2.63;1.92;;;;;;;;;;5136457;27;20528;-73
2023/11/16 00:43:18;;;;;;;2.55;1.80;;;;;;;;;;5121915;27;20027;-73
2023/11/16 00:46:09;;;;;;;3.47;1.90;;;;;;;;;;5135721;27;20027;-73
2023/11/16 00:48:54;;;;;;;3.55;2.10;;;;;;;;;;5135553;27;20519;-74
2023/11/16 00:51:40;;;;;;;4.78;2.08;;;;;;;;;;5121582;27;20535;-73
2023/11/16 00:54:25;;;;;;;3.30;2.20;;;;;;;;;;5135944;27;20027;-73
2023/11/16 00:57:12;;;;;;;3.40;1.90;;;;;;;;;;5135696;27;20015;-74
2023/11/16 00:59:58;;;;;;;3.40;1.85;;;;;;;;;;5135523;27;20027;-74
2023/11/16 01:02:48;;;;;;;3.28;2.05;;;;;;;;;;5135468;27;20023;-72
2023/11/16 01:05:34;;;;;;;3.35;2.60;;;;;;;;;;5135290;27;20417;-72
2023/11/16 01:08:21;;;;;;;3.40;2.85;;;;;;;;;;5121987;27;20419;-72
2023/11/16 01:11:08;;;;;;;3.70;2.70;;;;;;;;;;5134841;27;20110;-72
2023/11/16 01:13:54;;;;;;;4.10;2.00;;;;;;;;;;5120157;27;20451;-72
2023/11/16 01:16:44;;;;;;;3.30;2.00;;;;;;;;;;5120569;27;20015;-73
2023/11/16 01:19:32;;;;;;;3.38;2.00;;;;;;;;;;5135097;27;20502;-73
2023/11/16 01:22:21;;;;;;;2.90;2.17;;;;;;;;;;5120229;27;20019;-73
2023/11/16 01:25:15;;;;;;;2.67;2.00;;;;;;;;;;5135028;27;20027;-72
2023/11/16 01:28:00;;;;;;;3.35;2.25;;;;;;;;;;5134876;27;20400;-72
2023/11/16 01:30:46;;;;;;;3.00;2.03;;;;;;;;;;5135269;27;20077;-71
2023/11/16 01:33:32;;;;;;;2.92;2.20;;;;;;;;;;5134907;27;20081;-72
2023/11/16 01:36:18;;;;;;;2.38;1.75;;;;;;;;;;5133903;27;20023;-73
2023/11/16 01:39:04;;;;;;;2.50;1.83;;;;;;;;;;5120978;27;20427;-72
2023/11/16 01:41:50;;;;;;;3.47;1.67;;;;;;;;;;5134758;27;20031;-72
2023/11/16 01:44:36;;;;;;;2.65;1.63;;;;;;;;;;5120699;27;20121;-73
2023/11/16 01:47:23;;;;;;;2.70;1.73;;;;;;;;;;5134925;27;20027;-74
2023/11/16 01:50:08;;;;;;;4.45;1.70;;;;;;;;;;5134589;27;20034;-73
2023/11/16 01:53:03;;;;;;;2.92;1.70;;;;;;;;;;5134029;27;20039;-73
2023/11/16 01:55:49;;;;;;;2.28;1.70;;;;;;;;;;5135243;27;20053;-73
2023/11/16 01:58:34;;;;;;;3.03;1.92;;;;;;;;;;5134022;27;20067;-73
2023/11/16 02:01:21;;;;;;;2.58;1.80;;;;;;;;;;5134123;27;20124;-73
2023/11/16 02:04:07;;;;;;;2.10;1.75;;;;;;;;;;5134089;27;20439;-74
2023/11/16 02:06:54;;;;;;;3.08;1.75;;;;;;;;;;5135113;28;20031;-72
2023/11/16 02:09:39;;;;;;;2.72;1.90;;;;;;;;;;5134737;28;20019;-74
2023/11/16 02:12:25;;;;;;;2.40;1.75;;;;;;;;;;5120402;28;20015;-72
2023/11/16 02:15:11;;;;;;;3.47;1.90;;;;;;;;;;5134620;28;20019;-73
2023/11/16 02:17:56;;;;;;;2.38;1.88;;;;;;;;;;5133757;28;20103;-73
2023/11/16 02:20:43;;;;;;;2.20;1.70;;;;;;;;;;5134148;28;20038;-73
2023/11/16 02:23:31;;;;;;;4.60;1.85;;;;;;;;;;5134144;28;20015;-73
2023/11/16 02:26:18;;;;;;;3.78;1.70;;;;;;;;;;5133854;28;20102;-73
2023/11/16 02:29:04;;;;;;;2.40;1.90;;;;;;;;;;5120769;28;20088;-74
2023/11/16 02:31:49;;;;;;;2.10;1.80;;;;;;;;;;5134170;28;20107;-73
2023/11/16 02:34:36;;;;;;;2.75;1.88;;;;;;;;;;5134707;28;20054;-73
2023/11/16 02:37:22;;;;;;;2.92;1.70;;;;;;;;;;5134028;28;20034;-73
2023/11/16 02:40:09;;;;;;;2.75;1.90;;;;;;;;;;5134084;28;20466;-73
2023/11/16 02:42:55;;;;;;;4.30;1.80;;;;;;;;;;5133813;28;20051;-73
2023/11/16 02:45:41;;;;;;;3.60;2.28;;;;;;;;;;5133960;28;20019;-74
2023/11/16 02:48:26;;;;;;;2.80;2.08;;;;;;;;;;5134324;28;20027;-73
2023/11/16 02:51:15;;;;;;;3.67;2.45;;;;;;;;;;5133396;28;20360;-74
2023/11/16 02:54:06;;;;;;;3.38;2.15;;;;;;;;;;5133893;28;20098;-73
2023/11/16 02:56:53;;;;;;;4.47;2.20;;;;;;;;;;5133632;28;20019;-74
2023/11/16 02:59:38;;;;;;;3.22;2.40;;;;;;;;;;5119046;28;20019;-74
2023/11/16 03:02:24;;;;;;;3.35;2.58;;;;;;;;;;5134328;28;20027;-73
2023/11/16 03:05:10;;;;;;;4.47;2.47;;;;;;;;;;5133976;28;20047;-72
2023/11/16 03:07:56;;;;;;;3.47;2.58;;;;;;;;;;5134417;28;20023;-72
2023/11/16 03:10:41;;;;;;;6.00;3.00;;;;;;;;;;5119546;27;20030;-73
2023/11/16 03:13:28;;;;;;;3.22;2.47;;;;;;;;;;5137680;27;20034;-73
2023/11/16 03:16:14;;;;;;;4.75;3.03;;;;;;;;;;5137824;27;20075;-73
2023/11/16 03:19:00;;;;;;;3.65;2.63;;;;;;;;;;5137101;27;20019;-75
2023/11/16 03:21:45;;;;;;;4.60;2.80;;;;;;;;;;5137050;27;20071;-74
2023/11/16 03:24:31;;;;;;;4.25;2.75;;;;;;;;;;5123450;27;20439;-73
2023/11/16 03:27:16;;;;;;;5.53;3.17;;;;;;;;;;5137289;27;20106;-73
2023/11/16 03:30:03;;;;;;;5.97;3.13;;;;;;;;;;5137942;27;20091;-73
2023/11/16 03:32:49;;;;;;;3.85;2.63;;;;;;;;;;5137013;27;20023;-73
2023/11/16 03:35:34;;;;;;;4.45;2.70;;;;;;;;;;5137235;27;20007;-73
2023/11/16 03:38:20;;;;;;;4.22;2.90;;;;;;;;;;5136924;27;20023;-74
2023/11/16 03:41:06;;;;;;;3.92;3.00;;;;;;;;;;5136482;27;20451;-73
2023/11/16 03:43:52;;;;;;;3.40;2.80;;;;;;;;;;5136932;27;20030;-73
2023/11/16 03:46:38;;;;;;;4.75;2.80;;;;;;;;;;5136427;27;20111;-73
2023/11/16 03:49:24;;;;;;;5.03;2.55;;;;;;;;;;5136328;27;20114;-73
2023/11/16 03:52:10;;;;;;;6.25;2.95;;;;;;;;;;5135762;27;20055;-73
2023/11/16 03:54:55;;;;;;;3.53;2.30;;;;;;;;;;5135801;27;20015;-73
2023/11/16 03:57:41;;;;;;;4.70;2.80;;;;;;;;;;5136534;27;20038;-73
2023/11/16 04:00:26;;;;;;;3.55;2.63;;;;;;;;;;5136427;27;20038;-73
2023/11/16 04:03:12;;;;;;;3.85;2.50;;;;;;;;;;5122965;27;20015;-73
2023/11/16 04:05:58;;;;;;;4.00;2.70;;;;;;;;;;5123166;27;20015;-73
2023/11/16 04:08:43;;;;;;;4.30;2.72;;;;;;;;;;5136057;27;20031;-72
2023/11/16 04:11:29;;;;;;;3.55;2.72;;;;;;;;;;5121998;27;20105;-75
2023/11/16 04:14:15;;;;;;;4.05;2.63;;;;;;;;;;5122043;27;20020;-73
2023/11/16 04:17:00;;;;;;;3.08;2.63;;;;;;;;;;5136023;27;20023;-72
2023/11/16 04:19:46;;;;;;;6.15;2.55;;;;;;;;;;5136266;27;20011;-74
2023/11/16 04:22:32;;;;;;;3.15;2.22;;;;;;;;;;5122112;27;20048;-72
2023/11/16 04:25:27;;;;;;;3.53;2.45;;;;;;;;;;5136181;27;20034;-72
2023/11/16 04:28:13;;;;;;;4.18;2.53;;;;;;;;;;5121483;27;20398;-73
2023/11/16 04:30:58;;;;;;;3.20;2.28;;;;;;;;;;5135635;27;20426;-72
2023/11/16 04:33:44;;;;;;;7.05;2.38;;;;;;;;;;5122397;27;20022;-72
2023/11/16 04:36:30;;;;;;;3.67;2.20;;;;;;;;;;5135834;27;20423;-73
2023/11/16 04:39:16;;;;;;;2.85;2.10;;;;;;;;;;5137975;27;20439;-72
2023/11/16 04:42:01;;;;;;;4.18;2.30;;;;;;;;;;5137343;27;20029;-74
2023/11/16 04:44:47;;;;;;;3.33;2.42;;;;;;;;;;5136830;27;20019;-73
2023/11/16 04:47:34;;;;;;;2.60;2.08;;;;;;;;;;5135001;27;20388;-73
2023/11/16 04:50:22;;;;;;;3.50;2.00;;;;;;;;;;5121626;27;20436;-73
2023/11/16 04:53:07;;;;;;;3.97;2.22;;;;;;;;;;5137517;27;20099;-75
2023/11/16 04:55:53;;;;;;;3.30;2.25;;;;;;;;;;5135337;27;20035;-74
2023/11/16 04:58:42;;;;;;;3.45;2.45;;;;;;;;;;5135409;27;20106;-74
2023/11/16 05:01:28;;;;;;;3.00;2.30;;;;;;;;;;5135277;27;20371;-73
2023/11/16 05:04:13;;;;;;;4.68;2.55;;;;;;;;;;5137317;27;20027;-74
2023/11/16 05:06:59;;;;;;;4.38;2.20;;;;;;;;;;5134465;27;20094;-73
2023/11/16 05:09:44;;;;;;;3.10;2.20;;;;;;;;;;5134223;27;20332;-73
2023/11/16 05:12:30;;;;;;;4.13;2.30;;;;;;;;;;5135313;27;20015;-74
2023/11/16 05:15:16;;;;;;;7.47;2.42;;;;;;;;;;5135518;27;20098;-73
2023/11/16 05:18:04;;;;;;;5.72;2.33;;;;;;;;;;5135674;27;20019;-73
2023/11/16 05:20:49;;;;;;;4.18;2.22;;;;;;;;;;5120891;27;20019;-74
2023/11/16 05:23:35;;;;;;;4.95;2.85;;;;;;;;;;5120270;27;20015;-74
2023/11/16 05:26:21;;;;;;;4.85;2.38;;;;;;;;;;5135024;27;20493;-74
2023/11/16 05:29:06;;;;;;;3.97;2.50;;;;;;;;;;5121041;27;20110;-73
2023/11/16 05:31:52;;;;;;;4.65;2.70;;;;;;;;;;5121480;27;20450;-73
2023/11/16 05:34:37;;;;;;;5.20;2.80;;;;;;;;;;5134259;27;20011;-73
2023/11/16 05:37:23;;;;;;;6.60;2.75;;;;;;;;;;5119856;27;20023;-73
2023/11/16 05:40:09;;;;;;;5.50;2.70;;;;;;;;;;5120246;27;20023;-73
2023/11/16 05:42:55;;;;;;;9.32;3.08;;;;;;;;;;5135075;27;20441;-72
2023/11/16 05:45:40;;;;;;;5.10;3.15;;;;;;;;;;5121095;27;20027;-72
2023/11/16 05:48:26;;;;;;;8.13;3.28;;;;;;;;;;5134717;27;20027;-71
2023/11/16 05:51:11;;;;;;;7.95;3.65;;;;;;;;;;5120358;27;20429;-73
2023/11/16 05:53:57;;;;;;;7.70;4.43;;;;;;;;;;5134413;27;20399;-73
2023/11/16 05:56:44;;;;;;;6.15;3.60;;;;;;;;;;5134725;27;20043;-74
2023/11/16 05:59:30;;;;;;;7.00;3.75;;;;;;;;;;5134497;27;20011;-73
2023/11/16 06:02:15;;;;;;;10.93;4.05;;;;;;;;;;5135051;27;20015;-73
2023/11/16 06:05:01;;;;;;;6.25;3.55;;;;;;;;;;5134594;27;20172;-73
2023/11/16 06:07:47;;;;;;;5.50;2.85;;;;;;;;;;5133860;27;20519;-75
2023/11/16 06:10:32;;;;;;;6.90;3.85;;;;;;;;;;5134561;28;20111;-73
2023/11/16 06:13:22;;;;;;;7.03;3.83;;;;;;;;;;5133793;28;20023;-72
2023/11/16 06:16:07;;;;;;;11.43;3.75;;;;;;;;;;5134063;28;20451;-73
2023/11/16 06:18:53;;;;;;;5.00;3.55;;;;;;;;;;5135123;28;20039;-73
2023/11/16 06:21:40;;;;;;;4.78;3.13;;;;;;;;;;5134360;28;20030;-73
2023/11/16 06:24:25;;;;;;;7.75;3.33;;;;;;;;;;5120095;28;20020;-73
2023/11/16 06:27:11;;;;;;;5.50;3.20;;;;;;;;;;5135514;28;20435;-73
2023/11/16 06:29:57;;;;;;;4.95;2.97;;;;;;;;;;5119805;28;20027;-74
2023/11/16 06:32:42;;;;;;;5.97;3.10;;;;;;;;;;5120703;28;20047;-74
2023/11/16 06:35:28;;;;;;;5.72;2.80;;;;;;;;;;5120335;28;20047;-73
2023/11/16 06:38:14;;;;;;;3.88;2.65;;;;;;;;;;5121602;28;20019;-72
2023/11/16 06:40:59;;;;;;;5.95;3.45;;;;;;;;;;5134424;28;20030;-74
2023/11/16 06:43:46;;;;;;;7.10;2.80;;;;;;;;;;5134903;28;20100;-73
2023/11/16 06:46:33;;;;;;;3.28;2.50;;;;;;;;;;5137193;27;20045;-74
2023/11/16 06:49:20;;;;;;;4.18;2.45;;;;;;;;;;5138638;27;20023;-73
2023/11/16 06:52:06;;;;;;;6.07;2.47;;;;;;;;;;5137886;27;20049;-73
2023/11/16 06:54:53;;;;;;;3.83;3.13;;;;;;;;;;5124211;27;20034;-74
2023/11/16 06:57:40;;;;;;;6.50;3.10;;;;;;;;;;5137612;27;20409;-74
2023/11/16 07:00:26;;;;;;;4.03;2.50;;;;;;;;;;5137585;27;20023;-74
2023/11/16 07:03:12;;;;;;;4.70;2.50;;;;;;;;;;5137921;27;20027;-73
2023/11/16 07:05:57;;;;;;;6.57;2.67;;;;;;;;;;5136600;27;20022;-73
2023/11/16 07:08:44;;;;;;;4.35;2.58;;;;;;;;;;5137889;27;20401;-73
2023/11/16 07:11:29;;;;;;;3.58;2.30;;;;;;;;;;5137880;27;20027;-72
2023/11/16 07:14:16;;;;;;;4.13;2.40;;;;;;;;;;5136420;27;20057;-73
2023/11/16 07:17:02;;;;;;;4.15;2.38;;;;;;;;;;5138067;27;20019;-73
2023/11/16 07:19:48;;;;;;;6.13;2.55;;;;;;;;;;5137485;27;20022;-73
2023/11/16 07:22:35;;;;;;;4.13;2.38;;;;;;;;;;5136812;27;20034;-73
2023/11/16 07:25:22;;;;;;;6.95;2.70;;;;;;;;;;5124011;27;20458;-73
2023/11/16 07:28:08;;;;;;;3.72;2.15;;;;;;;;;;5136781;27;20443;-73
2023/11/16 07:30:54;;;;;;;5.35;2.50;;;;;;;;;;5137183;27;20030;-72
2023/11/16 07:33:40;;;;;;;4.03;2.30;;;;;;;;;;5123705;27;20019;-74
2023/11/16 07:36:27;;;;;;;3.47;2.22;;;;;;;;;;5137470;27;20018;-72
2023/11/16 07:39:12;;;;;;;4.20;2.47;;;;;;;;;;5137278;27;20459;-74
2023/11/16 07:41:59;;;;;;;3.38;2.28;;;;;;;;;;5123268;27;20034;-72
2023/11/16 07:44:44;;;;;;;6.38;2.65;;;;;;;;;;5137046;27;20023;-73
2023/11/16 07:47:30;;;;;;;3.35;2.08;;;;;;;;;;5137133;27;20027;-70
2023/11/16 07:50:16;;;;;;;6.50;2.20;;;;;;;;;;5134941;27;20031;-74
2023/11/16 07:53:08;;;;;;;6.03;2.20;;;;;;;;;;5117130;28;20024;-72
2023/11/16 07:55:54;;;;;;;6.60;2.17;;;;;;;;;;5103603;28;20023;-73
2023/11/16 07:58:48;;;;;;;7.93;2.70;;;;;;;;;;5116342;28;20107;-72
2023/11/16 08:01:49;;;;;;;8.63;2.17;;;;;;;;;;5115706;28;20020;-74
2023/11/16 08:04:35;;;;;;;2.90;2.03;;;;;;;;;;5116535;28;20023;-73
2023/11/16 08:07:21;;;;;;;4.97;2.17;;;;;;;;;;5117217;28;20028;-73
2023/11/16 08:10:09;;;;;;;5.47;2.13;;;;;;;;;;5115873;28;20416;-73
2023/11/16 08:13:00;;;;;;;5.75;1.60;;;;;;;;;;5101798;28;20024;-72
2023/11/16 08:15:52;;;;;;;3.80;2.47;;;;;;;;;;5118002;28;20099;-72
2023/11/16 08:18:38;;;;;;;3.83;1.95;;;;;;;;;;5101610;28;20039;-72
2023/11/16 08:21:25;;;;;;;2.08;1.70;;;;;;;;;;5116916;28;20120;-72
2023/11/16 08:24:14;;;;;;;2.65;1.70;;;;;;;;;;5116479;28;20023;-73
2023/11/16 08:26:59;;;;;;;2.72;1.95;;;;;;;;;;5117503;28;20015;-73
2023/11/16 08:29:45;;;;;;;4.18;1.98;;;;;;;;;;5117785;28;20019;-73
2023/11/16 08:32:30;;;;;;;2.72;1.60;;;;;;;;;;5117583;28;20027;-72
2023/11/16 08:35:16;;;;;;;3.53;1.60;;;;;;;;;;5102156;28;20011;-73
2023/11/16 08:38:02;;;;;;;3.53;2.00;;;;;;;;;;5118593;28;20023;-72
2023/11/16 08:40:48;;;;;;;4.55;1.60;;;;;;;;;;5127372;28;20015;-72
2023/11/16 08:43:34;;;;;;;3.00;1.75;;;;;;;;;;5113052;28;20027;-72
2023/11/16 08:46:24;;;;;;;3.70;1.75;;;;;;;;;;5117612;28;20102;-72
2023/11/16 08:49:10;;;;;;;2.97;2.15;;;;;;;;;;5124399;28;20079;-71
2023/11/16 08:51:58;;;;;;;4.32;1.70;;;;;;;;;;5112927;28;20071;-73
2023/11/16 08:54:44;;;;;;;4.00;1.80;;;;;;;;;;5112766;28;20019;-70
2023/11/16 08:57:29;;;;;;;3.20;1.90;;;;;;;;;;5110969;28;20023;-70
2023/11/16 09:00:27;;;;;;;4.35;1.77;;;;;;;;;;5117628;28;20020;-72
2023/11/16 09:03:13;;;;;;;4.25;1.77;;;;;;;;;;5121121;28;20019;-72
2023/11/16 09:06:06;;;;;;;1.77;1.48;;;;;;;;;;5128556;28;20020;-72
2023/11/16 09:08:53;;;;;;;3.40;1.70;;;;;;;;;;5125711;28;20019;-72
2023/11/16 09:11:40;;;;;;;2.78;1.77;;;;;;;;;;5123966;28;20024;-72
2023/11/16 09:14:26;;;;;;;6.75;1.88;;;;;;;;;;5121999;28;20083;-75
2023/11/16 09:17:20;;;;;;;4.68;1.80;;;;;;;;;;5110374;28;20091;-71
2023/11/16 09:20:10;;;;;;;3.25;1.60;;;;;;;;;;5124844;28;20012;-72
2023/11/16 09:22:59;;;;;;;5.50;2.10;;;;;;;;;;5105204;28;20119;-72
2023/11/16 09:25:45;;;;;;;5.80;1.50;;;;;;;;;;5122344;28;20035;-72
2023/11/16 09:28:35;;;;;;;3.45;2.33;;;;;;;;;;5123157;28;20443;-73
2023/11/16 09:31:21;;;;;;;15.52;2.03;;;;;;;;;;5119758;28;20034;-75
2023/11/16 09:34:06;;;;;;;5.80;1.55;;;;;;;;;;5118301;28;20030;-73
2023/11/16 09:36:52;;;;;;;3.38;1.55;;;;;;;;;;5101330;28;20034;-73
2023/11/16 09:39:38;;;;;;;5.47;1.60;;;;;;;;;;5117211;28;20024;-72
2023/11/16 09:42:26;;;;;;;3.35;1.60;;;;;;;;;;5117405;28;20031;-72
2023/11/16 09:45:12;;;;;;;8.63;2.28;;;;;;;;;;5119306;28;20420;-71
2023/11/16 09:48:10;;;;;;;3.38;1.58;;;;;;;;;;5122877;28;20015;-72
2023/11/16 09:50:55;;;;;;;4.30;1.83;;;;;;;;;;5103047;28;20528;-72
2023/11/16 09:53:43;;;;;;;6.03;1.75;;;;;;;;;;5119470;28;20031;-72
2023/11/16 09:56:30;;;;;;;2.97;1.70;;;;;;;;;;5123686;28;20023;-71
2023/11/16 09:59:27;;;;;;;4.10;1.60;;;;;;;;;;5124351;28;20023;-71
2023/11/16 10:02:15;;;;;;;2.20;1.45;;;;;;;;;;5109686;28;20026;-71
2023/11/16 10:05:01;;;;;;;6.30;1.55;;;;;;;;;;5110183;28;20015;-74
2023/11/16 10:07:47;;;;;;;5.28;1.55;;;;;;;;;;5125326;28;20126;-71
2023/11/16 10:10:33;;;;;;;3.55;1.73;;;;;;;;;;5125175;28;20024;-71
2023/11/16 10:13:19;;;;;;;3.97;1.90;;;;;;;;;;5124086;28;20023;-71
2023/11/16 10:16:08;;;;;;;2.88;1.50;;;;;;;;;;5110174;28;20023;-70
2023/11/16 10:18:58;;;;;;;7.07;1.65;;;;;;;;;;5111038;28;20075;-70
2023/11/16 10:21:48;;;;;;;4.75;1.40;;;;;;;;;;5113548;28;20115;-71
2023/11/16 10:24:35;;;;;;;2.40;1.58;;;;;;;;;;5130561;28;20038;-73
2023/11/16 10:27:30;;;;;;;2.00;1.60;;;;;;;;;;5130080;28;20061;-71
2023/11/16 10:30:16;;;;;;;3.35;1.50;;;;;;;;;;5129397;28;20062;-71
2023/11/16 10:33:02;;;;;;;5.28;1.88;;;;;;;;;;5113512;28;20031;-73
2023/11/16 10:35:49;;;;;;;2.03;1.50;;;;;;;;;;5128879;28;20011;-71
2023/11/16 10:38:36;;;;;;;4.85;1.90;;;;;;;;;;5112892;28;20019;-72
2023/11/16 10:41:21;;;;;;;2.33;1.65;;;;;;;;;;5127191;28;20355;-72
2023/11/16 10:44:08;;;;;;;6.22;1.70;;;;;;;;;;5109932;28;20084;-73
2023/11/16 10:46:54;;;;;;;6.90;1.70;;;;;;;;;;5108911;28;20020;-72
2023/11/16 10:49:39;;;;;;;2.65;1.60;;;;;;;;;;5120793;28;20301;-71
2023/11/16 10:52:26;;;;;;;2.88;1.50;;;;;;;;;;5120775;28;20060;-72
2023/11/16 10:55:21;;;;;;;3.55;2.00;;;;;;;;;;5122629;28;20046;-70
2023/11/16 10:58:09;;;;;;;2.72;1.90;;;;;;;;;;5118895;28;20439;-70
2023/11/16 11:00:56;;;;;;;2.75;1.50;;;;;;;;;;5118164;28;20015;-72
2023/11/16 11:03:44;;;;;;;2.92;1.50;;;;;;;;;;5122036;28;20051;-73
2023/11/16 11:06:32;;;;;;;5.32;1.50;;;;;;;;;;5104239;28;20030;-72
2023/11/16 11:09:22;;;;;;;4.00;1.40;;;;;;;;;;5104061;28;20023;-73
2023/11/16 11:12:15;;;;;;;3.28;1.77;;;;;;;;;;5118351;28;20023;-73
2023/11/16 11:15:01;;;;;;;5.28;1.75;;;;;;;;;;5118553;28;20023;-74
2023/11/16 11:17:50;;;;;;;2.22;1.67;;;;;;;;;;5118224;28;20436;-73
2023/11/16 11:20:38;;;;;;;2.92;1.50;;;;;;;;;;5118034;28;20012;-74
2023/11/16 11:23:23;;;;;;;3.60;1.70;;;;;;;;;;5119093;28;20111;-75
2023/11/16 11:26:13;;;;;;;4.10;1.63;;;;;;;;;;5118387;28;20042;-74
2023/11/16 11:28:59;;;;;;;4.80;1.60;;;;;;;;;;5103513;28;20020;-74
2023/11/16 11:31:50;;;;;;;6.68;1.70;;;;;;;;;;5117784;28;20103;-75
2023/11/16 11:34:36;;;;;;;16.50;1.92;;;;;;;;;;5118722;28;20359;-73
2023/11/16 11:37:34;;;;;;;5.97;1.65;;;;;;;;;;5117846;28;20016;-74
2023/11/16 11:40:24;;;;;;;7.57;2.53;;;;;;;;;;5118313;28;20026;-72
2023/11/16 11:43:18;;;;;;;10.73;1.63;;;;;;;;;;5118175;28;20027;-73
2023/11/16 11:46:08;;;;;;;3.65;1.50;;;;;;;;;;5120962;28;20019;-79
2023/11/16 11:48:58;;;;;;;6.10;1.98;;;;;;;;;;5104668;28;20016;-78
2023/11/16 11:51:45;;;;;;;6.40;2.90;;;;;;;;;;5118421;28;20500;-77
2023/11/16 11:54:35;;;;;;;14.70;3.25;;;;;;;;;;5118309;28;20050;-77
2023/11/16 11:57:21;;;;;;;6.03;1.88;;;;;;;;;;5119327;28;20098;-78
2023/11/16 12:00:07;;;;;;;5.05;1.80;;;;;;;;;;5120509;28;20012;-83
2023/11/16 12:02:54;;;;;;;7.70;1.60;;;;;;;;;;5103885;28;20027;-72
2023/11/16 12:05:40;;;;;;;5.32;1.60;;;;;;;;;;5102467;28;20074;-71
2023/11/16 12:08:37;;;;;;;4.95;1.55;;;;;;;;;;5102378;28;20020;-75
2023/11/16 12:11:26;;;;;;;1.65;1.33;;;;;;;;;;5102721;28;20451;-75
2023/11/16 12:14:14;;;;;;;4.65;1.65;;;;;;;;;;5117963;28;20152;-76
2023/11/16 12:17:00;;;;;;;4.03;1.60;;;;;;;;;;5102925;28;20034;-78
2023/11/16 12:19:49;;;;;;;2.60;1.30;;;;;;;;;;5117252;28;20072;-77
2023/11/16 12:22:35;;;;;;;6.07;1.63;;;;;;;;;;5101567;28;20019;-70
2023/11/16 12:25:21;;;;;;;6.43;1.75;;;;;;;;;;5116950;28;20051;-69
2023/11/16 12:28:07;;;;;;;6.90;1.52;;;;;;;;;;5117029;28;20444;-69
2023/11/16 12:30:52;;;;;;;4.40;1.83;;;;;;;;;;5116534;28;20096;-73
2023/11/16 12:33:39;;;;;;;9.90;2.17;;;;;;;;;;5102300;28;20019;-73
2023/11/16 12:36:25;;;;;;;24.48;3.58;;;;;;;;;;5101247;28;20022;-71
2023/11/16 12:39:13;;;;;;;2.75;1.52;;;;;;;;;;5116542;28;20068;-69
2023/11/16 12:42:06;;;;;;;5.93;1.25;;;;;;;;;;5116595;28;20019;-78
2023/11/16 12:44:52;;;;;;;6.82;2.10;;;;;;;;;;5116855;28;20042;-71
2023/11/16 12:47:38;;;;;;;4.47;1.60;;;;;;;;;;5116873;28;20027;-72
2023/11/16 12:50:23;;;;;;;3.08;1.30;;;;;;;;;;5116219;28;20542;-73
2023/11/16 12:53:09;;;;;;;7.15;1.58;;;;;;;;;;5115204;28;20364;-72
2023/11/16 12:55:57;;;;;;;14.27;2.40;;;;;;;;;;5115854;28;20071;-72
2023/11/16 12:58:43;;;;;;;4.30;1.60;;;;;;;;;;5117028;28;20050;-73
2023/11/16 13:01:29;;;;;;;5.95;2.03;;;;;;;;;;5114853;28;20061;-72
2023/11/16 13:04:15;;;;;;;7.60;1.55;;;;;;;;;;5116132;28;20461;-68
2023/11/16 13:07:01;;;;;;;11.05;1.80;;;;;;;;;;5100083;28;20028;-74
2023/11/16 13:09:47;;;;;;;2.55;1.35;;;;;;;;;;5096369;28;20035;-71
2023/11/16 13:12:32;;;;;;;6.53;2.50;;;;;;;;;;5100284;28;20020;-71
2023/11/16 13:15:19;;;;;;;6.97;1.50;;;;;;;;;;5114459;28;20012;-72
2023/11/16 13:18:05;;;;;;;4.07;1.70;;;;;;;;;;5113872;28;20016;-70
2023/11/16 13:20:50;;;;;;;2.53;1.70;;;;;;;;;;5114212;28;20023;-71
2023/11/16 13:23:37;;;;;;;7.13;1.80;;;;;;;;;;5110866;28;20012;-72
2023/11/16 13:26:23;;;;;;;3.95;1.63;;;;;;;;;;5093390;28;20089;-71
2023/11/16 13:29:08;;;;;;;3.13;1.75;;;;;;;;;;5094308;28;20031;-72
2023/11/16 13:31:54;;;;;;;2.22;1.55;;;;;;;;;;5092540;28;20031;-71
2023/11/16 13:34:41;;;;;;;6.82;2.17;;;;;;;;;;5094635;28;20020;-71
2023/11/16 13:37:27;;;;;;;8.85;3.70;;;;;;;;;;5094427;28;20115;-72
2023/11/16 13:40:12;;;;;;;11.63;2.35;;;;;;;;;;5094153;28;20028;-72
2023/11/16 13:42:58;;;;;;;5.43;1.70;;;;;;;;;;5095110;28;20462;-70
2023/11/16 13:45:46;;;;;;;4.57;1.67;;;;;;;;;;5094495;28;20024;-72
2023/11/16 13:48:32;;;;;;;1.95;1.50;;;;;;;;;;5093311;28;20127;-72
2023/11/16 13:51:18;;;;;;;2.97;1.50;;;;;;;;;;5094747;28;20056;-72
2023/11/16 13:54:03;;;;;;;2.17;1.58;;;;;;;;;;5094187;28;20341;-73
2023/11/16 13:56:49;;;;;;;3.03;1.60;;;;;;;;;;5078666;28;20020;-72
2023/11/16 13:59:35;;;;;;;4.82;1.80;;;;;;;;;;5079410;28;20024;-72
2023/11/16 14:02:21;;;;;;;6.63;2.00;;;;;;;;;;5093178;28;20027;-73
2023/11/16 14:05:07;;;;;;;2.75;1.75;;;;;;;;;;5079056;28;20338;-72
2023/11/16 14:07:53;;;;;;;5.15;2.15;;;;;;;;;;5093998;28;20023;-71
2023/11/16 14:10:39;;;;;;;3.95;1.70;;;;;;;;;;5094174;28;20031;-73
2023/11/16 14:13:26;;;;;;;3.05;1.90;;;;;;;;;;5093993;28;20028;-73
2023/11/16 14:16:13;;;;;;;11.27;2.25;;;;;;;;;;5093382;28;20016;-74
2023/11/16 14:18:58;;;;;;;4.38;1.90;;;;;;;;;;5093735;28;20016;-73
2023/11/16 14:21:44;;;;;;;3.15;1.90;;;;;;;;;;5093722;28;20387;-73
2023/11/16 14:24:30;;;;;;;12.77;1.95;;;;;;;;;;5093666;28;20020;-72
2023/11/16 14:27:15;;;;;;;4.30;1.80;;;;;;;;;;5091454;28;20035;-76
2023/11/16 14:30:01;;;;;;;8.65;2.05;;;;;;;;;;5078213;28;20058;-74
2023/11/16 14:32:47;;;;;;;1.80;1.33;;;;;;;;;;5092433;28;20020;-74
2023/11/16 14:35:32;;;;;;;3.78;1.60;;;;;;;;;;5092374;28;20020;-74
2023/11/16 14:38:18;;;;;;;6.95;1.60;;;;;;;;;;5092920;28;20456;-75
2023/11/16 14:41:06;;;;;;;2.08;1.65;;;;;;;;;;5078610;28;20024;-73
2023/11/16 14:43:51;;;;;;;3.67;2.00;;;;;;;;;;5079336;28;20024;-73
2023/11/16 14:46:37;;;;;;;5.00;2.20;;;;;;;;;;5092944;28;20100;-75
2023/11/16 14:49:22;;;;;;;7.25;2.90;;;;;;;;;;5092382;28;20456;-74
2023/11/16 14:52:08;;;;;;;7.55;3.70;;;;;;;;;;5108641;28;20052;-73
2023/11/16 14:55:00;;;;;;;4.25;2.55;;;;;;;;;;5128907;28;20338;-74
2023/11/16 14:57:45;;;;;;;4.38;2.47;;;;;;;;;;5124710;28;20019;-73
2023/11/16 15:00:32;;;;;;;5.55;2.65;;;;;;;;;;5113691;28;20032;-72
2023/11/16 15:03:17;;;;;;;7.00;2.80;;;;;;;;;;5098933;28;20023;-73
2023/11/16 15:06:03;;;;;;;7.53;2.88;;;;;;;;;;5098684;28;20118;-75
2023/11/16 15:08:49;;;;;;;4.80;3.10;;;;;;;;;;5117269;28;20016;-73
2023/11/16 15:11:35;;;;;;;7.65;2.92;;;;;;;;;;5116525;28;20093;-75
2023/11/16 15:14:20;;;;;;;7.85;2.92;;;;;;;;;;5117146;28;20024;-72
2023/11/16 15:17:06;;;;;;;5.07;3.00;;;;;;;;;;5116831;28;20023;-71
2023/11/16 15:19:52;;;;;;;3.63;2.40;;;;;;;;;;5119578;28;20102;-72
2023/11/16 15:22:46;;;;;;;4.97;2.95;;;;;;;;;;5125602;28;20110;-74
2023/11/16 15:25:34;;;;;;;8.77;3.33;;;;;;;;;;5150971;27;20023;-73
2023/11/16 15:28:20;;;;;;;6.20;3.33;;;;;;;;;;5156921;27;20027;-77
2023/11/16 15:31:05;;;;;;;7.18;3.33;;;;;;;;;;5159501;27;20011;-82
2023/11/16 15:33:51;;;;;;;6.72;3.30;;;;;;;;;;5138507;27;20016;-80
2023/11/16 15:36:36;;;;;;;7.60;3.00;;;;;;;;;;5136707;27;20012;-75
2023/11/16 15:39:23;;;;;;;6.78;3.45;;;;;;;;;;5137215;27;20884;-71
2023/11/16 15:42:08;;;;;;;8.93;4.03;;;;;;;;;;5130153;27;20027;-73
2023/11/16 15:44:55;;;;;;;7.30;3.75;;;;;;;;;;5116306;28;20027;-72
2023/11/16 15:47:40;;;;;;;19.02;5.07;;;;;;;;;;5115964;28;20028;-71
2023/11/16 15:50:28;;;;;;;15.82;4.93;;;;;;;;;;5115882;28;20399;-71
2023/11/16 15:53:19;;;;;;;13.00;5.20;;;;;;;;;;5117360;28;20444;-70
2023/11/16 15:56:12;;;;;;;13.43;5.63;;;;;;;;;;5117367;28;20062;-71
2023/11/16 15:58:58;;;;;;;10.85;5.47;;;;;;;;;;5102534;28;20115;-70
2023/11/16 16:01:48;;;;;;;12.32;6.28;;;;;;;;;;5117073;28;20360;-71
2023/11/16 16:04:34;;;;;;;7.22;3.90;;;;;;;;;;5116395;28;20449;-70
2023/11/16 16:07:27;;;;;;;9.65;4.13;;;;;;;;;;5124026;27;20018;-70
2023/11/16 16:10:26;;;;;;;10.35;3.90;;;;;;;;;;5121004;27;20031;-71
2023/11/16 16:13:32;;;;;;;11.32;4.22;;;;;;;;;;5136311;27;20023;-69
2023/11/16 16:16:21;;;;;;;7.70;3.58;;;;;;;;;;5121942;27;20520;-71
2023/11/16 16:19:07;;;;;;;7.80;3.55;;;;;;;;;;5110597;28;20023;-73
2023/11/16 16:21:53;;;;;;;7.25;4.32;;;;;;;;;;5116968;28;20118;-74
2023/11/16 16:24:39;;;;;;;8.90;5.10;;;;;;;;;;5100681;28;20023;-72
2023/11/16 16:27:24;;;;;;;13.00;4.90;;;;;;;;;;5100891;28;20074;-73
2023/11/16 16:30:13;;;;;;;9.70;4.50;;;;;;;;;;5121639;27;20058;-73
2023/11/16 16:32:58;;;;;;;8.43;3.83;;;;;;;;;;5122893;27;20023;-74
2023/11/16 16:35:44;;;;;;;7.22;3.92;;;;;;;;;;5121328;27;20083;-76
2023/11/16 16:38:30;;;;;;;9.20;3.70;;;;;;;;;;5135131;27;20011;-74
2023/11/16 16:41:16;;;;;;;7.65;4.07;;;;;;;;;;5135477;27;20333;-71